sensor_id;sensor_type;location;lat;lon;timestamp;pressure;altitude;pressure_sealevel;temperature;humidity
74065;BME280;62421;51.412;5.432;2024-02-14T13:25:51;101472.78;;;10.74;100.00
74065;BME280;62421;51.412;5.432;2024-02-14T13:28:17;101464.53;;;10.77;100.00
74065;BME280;62421;51.412;5.432;2024-02-14T13:30:43;101455.59;;;10.77;100.00
74065;BME280;62421;51.412;5.432;2024-02-14T13:33:08;101469.03;;;10.77;100.00
74065;BME280;62421;51.412;5.432;2024-02-14T13:35:36;101466.25;;;10.78;100.00
74065;BME280;62421;51.412;5.432;2024-02-14T13:38:04;101468.09;;;10.78;100.00
74065;BME280;62421;51.412;5.432;2024-02-14T13:40:30;101470.88;;;10.76;100.00
74065;BME280;62421;51.412;5.432;2024-02-14T13:42:56;101471.91;;;10.74;100.00
74065;BME280;62421;51.412;5.432;2024-02-14T13:45:24;101462.22;;;10.71;100.00
74065;BME280;62421;51.412;5.432;2024-02-14T13:47:50;101461.34;;;10.71;100.00
74065;BME280;62421;51.412;5.432;2024-02-14T13:50:16;101456.94;;;10.70;100.00
74065;BME280;62421;51.412;5.432;2024-02-14T13:52:41;101468.53;;;10.70;100.00
74065;BME280;62421;51.412;5.432;2024-02-14T13:55:07;101459.63;;;10.70;100.00
74065;BME280;62421;51.412;5.432;2024-02-14T13:57:41;101457.72;;;10.72;100.00
74065;BME280;62421;51.412;5.432;2024-02-14T14:00:08;101464.03;;;10.71;100.00
74065;BME280;62421;51.412;5.432;2024-02-14T14:02:37;101463.88;;;10.74;100.00
74065;BME280;62421;51.412;5.432;2024-02-14T14:05:06;101462.88;;;10.75;100.00
74065;BME280;62421;51.412;5.432;2024-02-14T14:07:34;101460.97;;;10.77;100.00
74065;BME280;62421;51.412;5.432;2024-02-14T14:10:04;101456.47;;;10.77;100.00
74065;BME280;62421;51.412;5.432;2024-02-14T14:12:30;101459.06;;;10.79;100.00
74065;BME280;62421;51.412;5.432;2024-02-14T14:14:55;101449.09;;;10.81;100.00
74065;BME280;62421;51.412;5.432;2024-02-14T14:17:21;101448.16;;;10.82;100.00
74065;BME280;62421;51.412;5.432;2024-02-14T14:19:46;101449.00;;;10.82;100.00
74065;BME280;62421;51.412;5.432;2024-02-14T14:22:11;101448.88;;;10.84;100.00
74065;BME280;62421;51.412;5.432;2024-02-14T14:24:36;101446.97;;;10.86;100.00
74065;BME280;62421;51.412;5.432;2024-02-14T14:27:02;101457.84;;;10.84;100.00
74065;BME280;62421;51.412;5.432;2024-02-14T14:29:27;101453.41;;;10.83;100.00
74065;BME280;62421;51.412;5.432;2024-02-14T14:31:53;101445.34;;;10.83;100.00
74065;BME280;62421;51.412;5.432;2024-02-14T14:34:19;101449.78;;;10.84;100.00
74065;BME280;62421;51.412;5.432;2024-02-14T14:36:44;101454.09;;;10.87;100.00
74065;BME280;62421;51.412;5.432;2024-02-14T14:39:10;101455.81;;;10.88;100.00
74065;BME280;62421;51.412;5.432;2024-02-14T14:41:37;101447.84;;;10.86;100.00
74065;BME280;62421;51.412;5.432;2024-02-14T14:44:03;101454.84;;;10.89;100.00
74065;BME280;62421;51.412;5.432;2024-02-14T14:46:28;101457.72;;;10.86;100.00
74065;BME280;62421;51.412;5.432;2024-02-14T14:48:56;101446.19;;;10.84;100.00
74065;BME280;62421;51.412;5.432;2024-02-14T14:51:21;101450.63;;;10.85;100.00
74065;BME280;62421;51.412;5.432;2024-02-14T14:53:47;101451.41;;;10.87;100.00
74065;BME280;62421;51.412;5.432;2024-02-14T14:56:12;101446.03;;;10.87;100.00
74065;BME280;62421;51.412;5.432;2024-02-14T14:58:37;101448.72;;;10.87;100.00
74065;BME280;62421;51.412;5.432;2024-02-14T15:01:05;101445.19;;;10.86;100.00
74065;BME280;62421;51.412;5.432;2024-02-14T15:03:30;101448.72;;;10.87;100.00
74065;BME280;62421;51.412;5.432;2024-02-14T15:05:56;101448.81;;;10.85;100.00
74065;BME280;62421;51.412;5.432;2024-02-14T15:08:22;101452.34;;;10.86;100.00
74065;BME280;62421;51.412;5.432;2024-02-14T15:10:51;101446.03;;;10.87;100.00
74065;BME280;62421;51.412;5.432;2024-02-14T15:13:21;101443.44;;;10.85;100.00
74065;BME280;62421;51.412;5.432;2024-02-14T15:15:46;101454.00;;;10.89;100.00
74065;BME280;62421;51.412;5.432;2024-02-14T15:18:12;101454.09;;;10.87;100.00
74065;BME280;62421;51.412;5.432;2024-02-14T15:20:37;101445.94;;;10.89;100.00
74065;BME280;62421;51.412;5.432;2024-02-14T15:23:03;101455.72;;;10.90;100.00
74065;BME280;62421;51.412;5.432;2024-02-14T15:25:28;101455.63;;;10.91;100.00
74065;BME280;62421;51.412;5.432;2024-02-14T15:27:54;101452.94;;;10.91;100.00
74065;BME280;62421;51.412;5.432;2024-02-14T15:30:26;101453.72;;;10.93;100.00
74065;BME280;62421;51.412;5.432;2024-02-14T15:33:10;101458.13;;;10.94;100.00
74065;BME280;62421;51.412;5.432;2024-02-14T15:35:50;101450.06;;;10.94;100.00
74065;BME280;62421;51.412;5.432;2024-02-14T15:38:17;101460.81;;;10.94;100.00
74065;BME280;62421;51.412;5.432;2024-02-14T15:40:47;101459.09;;;10.93;100.00
74065;BME280;62421;51.412;5.432;2024-02-14T15:43:15;101459.84;;;10.95;100.00
74065;BME280;62421;51.412;5.432;2024-02-14T15:45:41;101467.91;;;10.95;100.00
74065;BME280;62421;51.412;5.432;2024-02-14T15:48:07;101466.09;;;10.96;100.00
74065;BME280;62421;51.412;5.432;2024-02-14T15:50:34;101468.78;;;10.96;100.00
74065;BME280;62421;51.412;5.432;2024-02-14T15:52:59;101469.63;;;10.96;100.00
74065;BME280;62421;51.412;5.432;2024-02-14T15:55:25;101461.56;;;10.96;100.00
74065;BME280;62421;51.412;5.432;2024-02-14T15:57:50;101463.31;;;10.97;100.00
74065;BME280;62421;51.412;5.432;2024-02-14T16:00:16;101458.81;;;10.98;100.00
74065;BME280;62421;51.412;5.432;2024-02-14T16:02:42;101453.50;;;10.96;100.00
74065;BME280;62421;51.412;5.432;2024-02-14T16:05:08;101456.19;;;10.96;100.00
74065;BME280;62421;51.412;5.432;2024-02-14T16:07:36;101447.38;;;10.94;100.00
74065;BME280;62421;51.412;5.432;2024-02-14T16:10:02;101453.59;;;10.95;100.00
74065;BME280;62421;51.412;5.432;2024-02-14T16:12:28;101458.13;;;10.94;100.00
74065;BME280;62421;51.412;5.432;2024-02-14T16:14:53;101464.47;;;10.93;100.00
74065;BME280;62421;51.412;5.432;2024-02-14T16:17:19;101459.94;;;10.94;100.00
74065;BME280;62421;51.412;5.432;2024-02-14T16:19:44;101464.47;;;10.93;100.00
74065;BME280;62421;51.412;5.432;2024-02-14T16:22:09;101470.78;;;10.92;100.00
74065;BME280;62421;51.412;5.432;2024-02-14T16:24:36;101472.59;;;10.92;100.00
74065;BME280;62421;51.412;5.432;2024-02-14T16:27:01;101468.22;;;10.91;100.00
74065;BME280;62421;51.412;5.432;2024-02-14T16:29:27;101464.63;;;10.90;100.00
74065;BME280;62421;51.412;5.432;2024-02-14T16:31:53;101471.75;;;10.91;100.00
74065;BME280;62421;51.412;5.432;2024-02-14T16:34:18;101470.00;;;10.90;100.00
74065;BME280;62421;51.412;5.432;2024-02-14T16:36:44;101467.31;;;10.90;100.00
74065;BME280;62421;51.412;5.432;2024-02-14T16:39:09;101465.59;;;10.89;100.00
74065;BME280;62421;51.412;5.432;2024-02-14T16:41:35;101455.81;;;10.88;100.00
74065;BME280;62421;51.412;5.432;2024-02-14T16:44:03;101459.47;;;10.87;100.00
74065;BME280;62421;51.412;5.432;2024-02-14T16:46:28;101461.28;;;10.86;100.00
74065;BME280;62421;51.412;5.432;2024-02-14T16:48:53;101460.41;;;10.86;100.00
74065;BME280;62421;51.412;5.432;2024-02-14T16:51:19;101464.91;;;10.85;100.00
74065;BME280;62421;51.412;5.432;2024-02-14T16:53:45;101467.59;;;10.85;100.00
74065;BME280;62421;51.412;5.432;2024-02-14T16:56:11;101465.78;;;10.86;100.00
74065;BME280;62421;51.412;5.432;2024-02-14T16:58:36;101460.53;;;10.84;100.00
74065;BME280;62421;51.412;5.432;2024-02-14T17:01:01;101457.84;;;10.84;100.00
74065;BME280;62421;51.412;5.432;2024-02-14T17:03:27;101455.16;;;10.84;100.00
74065;BME280;62421;51.412;5.432;2024-02-14T17:05:52;101463.22;;;10.84;100.00
74065;BME280;62421;51.412;5.432;2024-02-14T17:08:18;101447.94;;;10.85;100.00
74065;BME280;62421;51.412;5.432;2024-02-14T17:10:44;101447.16;;;10.83;100.00
74065;BME280;62421;51.412;5.432;2024-02-14T17:13:09;101443.63;;;10.82;100.00
74065;BME280;62421;51.412;5.432;2024-02-14T17:15:34;101434.03;;;10.78;100.00
74065;BME280;62421;51.412;5.432;2024-02-14T17:18:00;101427.03;;;10.76;100.00
74065;BME280;62421;51.412;5.432;2024-02-14T17:20:25;101443.22;;;10.74;100.00
74065;BME280;62421;51.412;5.432;2024-02-14T17:22:51;101462.03;;;10.74;100.00
74065;BME280;62421;51.412;5.432;2024-02-14T17:25:16;101473.63;;;10.75;100.00
74065;BME280;62421;51.412;5.432;2024-02-14T17:27:43;101478.94;;;10.76;100.00
74065;BME280;62421;51.412;5.432;2024-02-14T17:30:09;101484.28;;;10.76;100.00
74065;BME280;62421;51.412;5.432;2024-02-14T17:32:34;101491.38;;;10.77;100.00
74065;BME280;62421;51.412;5.432;2024-02-14T17:34:59;101503.88;;;10.78;100.00
74065;BME280;62421;51.412;5.432;2024-02-14T17:37:25;101508.28;;;10.79;100.00
74065;BME280;62421;51.412;5.432;2024-02-14T17:39:50;101509.94;;;10.82;100.00
74065;BME280;62421;51.412;5.432;2024-02-14T17:42:15;101511.72;;;10.81;100.00
74065;BME280;62421;51.412;5.432;2024-02-14T17:44:41;101517.78;;;10.85;100.00
74065;BME280;62421;51.412;5.432;2024-02-14T17:47:07;101521.41;;;10.84;100.00
74065;BME280;62421;51.412;5.432;2024-02-14T17:49:33;101526.72;;;10.85;100.00
74065;BME280;62421;51.412;5.432;2024-02-14T17:51:58;101522.19;;;10.86;100.00
74065;BME280;62421;51.412;5.432;2024-02-14T17:54:24;101522.13;;;10.88;100.00
74065;BME280;62421;51.412;5.432;2024-02-14T17:56:49;101529.22;;;10.89;100.00
74065;BME280;62421;51.412;5.432;2024-02-14T17:59:15;101529.22;;;10.89;100.00
74065;BME280;62421;51.412;5.432;2024-02-14T18:01:40;101530.94;;;10.90;100.00
74065;BME280;62421;51.412;5.432;2024-02-14T18:04:07;101534.50;;;10.90;100.00
74065;BME280;62421;51.412;5.432;2024-02-14T18:06:37;101530.00;;;10.91;100.00
74065;BME280;62421;51.412;5.432;2024-02-14T18:09:02;101521.94;;;10.91;100.00
74065;BME280;62421;51.412;5.432;2024-02-14T18:11:28;101539.59;;;10.95;100.00
74065;BME280;62421;51.412;5.432;2024-02-14T18:13:53;101538.84;;;10.93;100.00
74065;BME280;62421;51.412;5.432;2024-02-14T18:16:19;101536.03;;;10.94;100.00
74065;BME280;62421;51.412;5.432;2024-02-14T18:18:46;101546.00;;;10.92;100.00
74065;BME280;62421;51.412;5.432;2024-02-14T18:21:11;101547.84;;;10.92;100.00
74065;BME280;62421;51.412;5.432;2024-02-14T18:23:37;101546.91;;;10.93;100.00
74065;BME280;62421;51.412;5.432;2024-02-14T18:26:03;101546.00;;;10.92;100.00
74065;BME280;62421;51.412;5.432;2024-02-14T18:28:29;101547.84;;;10.92;100.00
74065;BME280;62421;51.412;5.432;2024-02-14T18:30:56;101544.22;;;10.93;100.00
74065;BME280;62421;51.412;5.432;2024-02-14T18:33:22;101543.44;;;10.91;100.00
74065;BME280;62421;51.412;5.432;2024-02-14T18:35:47;101555.13;;;10.90;100.00
74065;BME280;62421;51.412;5.432;2024-02-14T18:38:12;101543.59;;;10.88;100.00
74065;BME280;62421;51.412;5.432;2024-02-14T18:40:38;101549.94;;;10.86;100.00
74065;BME280;62421;51.412;5.432;2024-02-14T18:43:04;101558.88;;;10.87;100.00
74065;BME280;62421;51.412;5.432;2024-02-14T18:45:30;101561.63;;;10.85;100.00
74065;BME280;62421;51.412;5.432;2024-02-14T18:47:55;101561.63;;;10.85;100.00
74065;BME280;62421;51.412;5.432;2024-02-14T18:50:21;101557.25;;;10.84;100.00
74065;BME280;62421;51.412;5.432;2024-02-14T18:52:47;101557.31;;;10.83;100.00
74065;BME280;62421;51.412;5.432;2024-02-14T18:55:14;101563.56;;;10.83;100.00
74065;BME280;62421;51.412;5.432;2024-02-14T18:57:42;101560.88;;;10.83;100.00
74065;BME280;62421;51.412;5.432;2024-02-14T19:00:08;101563.56;;;10.83;100.00
74065;BME280;62421;51.412;5.432;2024-02-14T19:02:35;101560.00;;;10.83;100.00
74065;BME280;62421;51.412;5.432;2024-02-14T19:05:02;101560.97;;;10.82;100.00
74065;BME280;62421;51.412;5.432;2024-02-14T19:07:28;101561.84;;;10.82;100.00
74065;BME280;62421;51.412;5.432;2024-02-14T19:09:53;101558.19;;;10.83;100.00
74065;BME280;62421;51.412;5.432;2024-02-14T19:12:18;101562.50;;;10.86;100.00
74065;BME280;62421;51.412;5.432;2024-02-14T19:14:44;101556.34;;;10.84;100.00
74065;BME280;62421;51.412;5.432;2024-02-14T19:17:11;101555.31;;;10.86;100.00
74065;BME280;62421;51.412;5.432;2024-02-14T19:19:37;101558.00;;;10.86;100.00
74065;BME280;62421;51.412;5.432;2024-02-14T19:22:03;101556.09;;;10.89;100.00
74065;BME280;62421;51.412;5.432;2024-02-14T19:24:29;101555.97;;;10.90;100.00
74065;BME280;62421;51.412;5.432;2024-02-14T19:26:55;101561.47;;;10.89;100.00
74065;BME280;62421;51.412;5.432;2024-02-14T19:29:20;101564.94;;;10.91;100.00
74065;BME280;62421;51.412;5.432;2024-02-14T19:31:47;101561.34;;;10.90;100.00
74065;BME280;62421;51.412;5.432;2024-02-14T19:34:13;101557.72;;;10.91;100.00
74065;BME280;62421;51.412;5.432;2024-02-14T19:36:38;101558.66;;;10.90;100.00
74065;BME280;62421;51.412;5.432;2024-02-14T19:39:05;101557.66;;;10.93;100.00
74065;BME280;62421;51.412;5.432;2024-02-14T19:41:30;101548.81;;;10.91;100.00
74065;BME280;62421;51.412;5.432;2024-02-14T19:43:56;101546.00;;;10.92;100.00
74065;BME280;62421;51.412;5.432;2024-02-14T19:46:21;101543.31;;;10.92;100.00
74065;BME280;62421;51.412;5.432;2024-02-14T19:48:47;101555.81;;;10.93;100.00
74065;BME280;62421;51.412;5.432;2024-02-14T19:51:13;101548.63;;;10.94;100.00
74065;BME280;62421;51.412;5.432;2024-02-14T19:53:38;101554.00;;;10.94;100.00
74065;BME280;62421;51.412;5.432;2024-02-14T19:56:04;101551.31;;;10.94;100.00
74065;BME280;62421;51.412;5.432;2024-02-14T19:58:29;101558.38;;;10.95;100.00
74065;BME280;62421;51.412;5.432;2024-02-14T20:00:55;101562.06;;;10.94;100.00
74065;BME280;62421;51.412;5.432;2024-02-14T20:03:20;101563.75;;;10.95;100.00
74065;BME280;62421;51.412;5.432;2024-02-14T20:05:46;101575.41;;;10.95;100.00
74065;BME280;62421;51.412;5.432;2024-02-14T20:08:13;101580.78;;;10.95;100.00
74065;BME280;62421;51.412;5.432;2024-02-14T20:10:39;101583.47;;;10.95;100.00
74065;BME280;62421;51.412;5.432;2024-02-14T20:13:04;101578.09;;;10.95;100.00
74065;BME280;62421;51.412;5.432;2024-02-14T20:15:29;101583.34;;;10.97;100.00
74065;BME280;62421;51.412;5.432;2024-02-14T20:17:55;101593.25;;;10.96;100.00
74065;BME280;62421;51.412;5.432;2024-02-14T20:20:21;101584.31;;;10.96;100.00
74065;BME280;62421;51.412;5.432;2024-02-14T20:22:48;101586.94;;;10.97;100.00
74065;BME280;62421;51.412;5.432;2024-02-14T20:25:17;101586.16;;;10.95;100.00
74065;BME280;62421;51.412;5.432;2024-02-14T20:27:42;101591.41;;;10.97;100.00
74065;BME280;62421;51.412;5.432;2024-02-14T20:30:10;101586.94;;;10.97;100.00
74065;BME280;62421;51.412;5.432;2024-02-14T20:32:38;101593.16;;;10.98;100.00
74065;BME280;62421;51.412;5.432;2024-02-14T20:35:10;101587.00;;;10.96;100.00
74065;BME280;62421;51.412;5.432;2024-02-14T20:37:40;101592.38;;;10.96;100.00
74065;BME280;62421;51.412;5.432;2024-02-14T20:40:06;101588.06;;;10.93;100.00
74065;BME280;62421;51.412;5.432;2024-02-14T20:42:32;101576.53;;;10.91;100.00
74065;BME280;62421;51.412;5.432;2024-02-14T20:44:57;101593.53;;;10.92;100.00
74065;BME280;62421;51.412;5.432;2024-02-14T20:47:23;101594.38;;;10.92;100.00
74065;BME280;62421;51.412;5.432;2024-02-14T20:49:49;101589.19;;;10.89;100.00
74065;BME280;62421;51.412;5.432;2024-02-14T20:52:15;101591.88;;;10.89;100.00
74065;BME280;62421;51.412;5.432;2024-02-14T20:54:40;101592.81;;;10.88;100.00
74065;BME280;62421;51.412;5.432;2024-02-14T20:57:05;101594.66;;;10.88;100.00
74065;BME280;62421;51.412;5.432;2024-02-14T20:59:31;101594.75;;;10.86;100.00
74065;BME280;62421;51.412;5.432;2024-02-14T21:01:56;101597.53;;;10.84;100.00
74065;BME280;62421;51.412;5.432;2024-02-14T21:04:22;101600.13;;;10.86;100.00
74065;BME280;62421;51.412;5.432;2024-02-14T21:06:47;101597.41;;;10.86;100.00
74065;BME280;62421;51.412;5.432;2024-02-14T21:09:12;101601.09;;;10.85;100.00
74065;BME280;62421;51.412;5.432;2024-02-14T21:11:38;101600.22;;;10.84;100.00
74065;BME280;62421;51.412;5.432;2024-02-14T21:14:04;101602.91;;;10.84;100.00
74065;BME280;62421;51.412;5.432;2024-02-14T21:16:31;101592.16;;;10.84;100.00
74065;BME280;62421;51.412;5.432;2024-02-14T21:18:56;101601.16;;;10.83;100.00
74065;BME280;62421;51.412;5.432;2024-02-14T21:21:22;101605.59;;;10.84;100.00
74065;BME280;62421;51.412;5.432;2024-02-14T21:23:47;101607.41;;;10.84;100.00
74065;BME280;62421;51.412;5.432;2024-02-14T21:26:12;101604.63;;;10.85;100.00
74065;BME280;62421;51.412;5.432;2024-02-14T21:28:38;101607.22;;;10.87;100.00
74065;BME280;62421;51.412;5.432;2024-02-14T21:31:04;101616.22;;;10.86;100.00
74065;BME280;62421;51.412;5.432;2024-02-14T21:33:30;101609.16;;;10.85;100.00
74065;BME280;62421;51.412;5.432;2024-02-14T21:35:56;101618.06;;;10.85;100.00
74065;BME280;62421;51.412;5.432;2024-02-14T21:38:22;101618.06;;;10.85;100.00
74065;BME280;62421;51.412;5.432;2024-02-14T21:40:48;101623.44;;;10.85;100.00
74065;BME280;62421;51.412;5.432;2024-02-14T21:43:14;101620.75;;;10.85;100.00
74065;BME280;62421;51.412;5.432;2024-02-14T21:45:41;101622.56;;;10.85;100.00
74065;BME280;62421;51.412;5.432;2024-02-14T21:48:06;101627.88;;;10.86;100.00
74065;BME280;62421;51.412;5.432;2024-02-14T21:50:32;101609.06;;;10.86;100.00
74065;BME280;62421;51.412;5.432;2024-02-14T21:52:57;101620.75;;;10.85;100.00
74065;BME280;62421;51.412;5.432;2024-02-14T21:55:23;101611.75;;;10.86;100.00
74065;BME280;62421;51.412;5.432;2024-02-14T21:57:48;101619.81;;;10.86;100.00
74065;BME280;62421;51.412;5.432;2024-02-14T22:00:14;101613.47;;;10.88;100.00
74065;BME280;62421;51.412;5.432;2024-02-14T22:02:39;101624.28;;;10.86;100.00
74065;BME280;62421;51.412;5.432;2024-02-14T22:05:05;101616.22;;;10.86;100.00
74065;BME280;62421;51.412;5.432;2024-02-14T22:07:31;101620.66;;;10.87;100.00
74065;BME280;62421;51.412;5.432;2024-02-14T22:09:57;101604.63;;;10.85;100.00
74065;BME280;62421;51.412;5.432;2024-02-14T22:12:22;101617.19;;;10.85;100.00
74065;BME280;62421;51.412;5.432;2024-02-14T22:14:48;101617.19;;;10.85;100.00
74065;BME280;62421;51.412;5.432;2024-02-14T22:17:13;101607.31;;;10.85;100.00
74065;BME280;62421;51.412;5.432;2024-02-14T22:19:42;101602.03;;;10.84;100.00
74065;BME280;62421;51.412;5.432;2024-02-14T22:22:09;101598.47;;;10.83;100.00
74065;BME280;62421;51.412;5.432;2024-02-14T22:24:37;101593.03;;;10.85;100.00
74065;BME280;62421;51.412;5.432;2024-02-14T22:27:03;101601.09;;;10.85;100.00
74065;BME280;62421;51.412;5.432;2024-02-14T22:29:28;101598.41;;;10.85;100.00
74065;BME280;62421;51.412;5.432;2024-02-14T22:31:53;101598.41;;;10.85;100.00
74065;BME280;62421;51.412;5.432;2024-02-14T22:34:19;101596.66;;;10.84;100.00
74065;BME280;62421;51.412;5.432;2024-02-14T22:36:44;101595.72;;;10.85;100.00
74065;BME280;62421;51.412;5.432;2024-02-14T22:39:09;101608.28;;;10.84;100.00
74065;BME280;62421;51.412;5.432;2024-02-14T22:41:38;101608.28;;;10.84;100.00
74065;BME280;62421;51.412;5.432;2024-02-14T22:44:04;101604.63;;;10.85;100.00
74065;BME280;62421;51.412;5.432;2024-02-14T22:46:30;101602.03;;;10.84;100.00
74065;BME280;62421;51.412;5.432;2024-02-14T22:48:56;101612.78;;;10.84;100.00
74065;BME280;62421;51.412;5.432;2024-02-14T22:51:21;101602.91;;;10.84;100.00
74065;BME280;62421;51.412;5.432;2024-02-14T22:53:46;101608.28;;;10.84;100.00
74065;BME280;62421;51.412;5.432;2024-02-14T22:56:13;101602.91;;;10.84;100.00
74065;BME280;62421;51.412;5.432;2024-02-14T22:58:40;101606.53;;;10.83;100.00
74065;BME280;62421;51.412;5.432;2024-02-14T23:01:06;101596.66;;;10.84;100.00
74065;BME280;62421;51.412;5.432;2024-02-14T23:03:31;101605.69;;;10.83;100.00
74065;BME280;62421;51.412;5.432;2024-02-14T23:05:57;101591.47;;;10.81;100.00
74065;BME280;62421;51.412;5.432;2024-02-14T23:08:26;101597.69;;;10.81;100.00
74065;BME280;62421;51.412;5.432;2024-02-14T23:10:52;101589.75;;;10.80;100.00
74065;BME280;62421;51.412;5.432;2024-02-14T23:13:17;101597.81;;;10.80;100.00
74065;BME280;62421;51.412;5.432;2024-02-14T23:15:43;101597.03;;;10.78;100.00
74065;BME280;62421;51.412;5.432;2024-02-14T23:18:08;101594.44;;;10.76;100.00
74065;BME280;62421;51.412;5.432;2024-02-14T23:20:34;101588.97;;;10.78;100.00
74065;BME280;62421;51.412;5.432;2024-02-14T23:23:01;101591.66;;;10.78;100.00
74065;BME280;62421;51.412;5.432;2024-02-14T23:25:27;101588.09;;;10.77;100.00
74065;BME280;62421;51.412;5.432;2024-02-14T23:27:55;101593.47;;;10.77;100.00
74065;BME280;62421;51.412;5.432;2024-02-14T23:30:21;101594.34;;;10.78;100.00
74065;BME280;62421;51.412;5.432;2024-02-14T23:32:46;101583.69;;;10.76;100.00
74065;BME280;62421;51.412;5.432;2024-02-14T23:35:13;101591.81;;;10.75;100.00
74065;BME280;62421;51.412;5.432;2024-02-14T23:37:39;101588.28;;;10.74;100.00
74065;BME280;62421;51.412;5.432;2024-02-14T23:40:09;101588.38;;;10.73;100.00
74065;BME280;62421;51.412;5.432;2024-02-14T23:42:38;101604.59;;;10.71;100.00
74065;BME280;62421;51.412;5.432;2024-02-14T23:45:04;101599.22;;;10.71;100.00
74065;BME280;62421;51.412;5.432;2024-02-14T23:47:30;101592.97;;;10.71;100.00
74065;BME280;62421;51.412;5.432;2024-02-14T23:49:59;101604.69;;;10.70;100.00
74065;BME280;62421;51.412;5.432;2024-02-14T23:52:24;101597.47;;;10.70;100.00
74065;BME280;62421;51.412;5.432;2024-02-14T23:54:51;101596.53;;;10.71;100.00
74065;BME280;62421;51.412;5.432;2024-02-14T23:57:16;101595.66;;;10.71;100.00
74065;BME280;62421;51.412;5.432;2024-02-14T23:59:42;101585.78;;;10.71;100.00
